createdAt,value
2023-02-22T00:02:13.959Z,98944.00
2023-02-22T00:04:41.728Z,98947.60
2023-02-22T00:07:09.478Z,98947.40
2023-02-22T00:09:37.177Z,98947.60
2023-02-22T00:12:05.131Z,98948.80
2023-02-22T00:14:33.647Z,98946.60
2023-02-22T00:17:02.415Z,98948.40
2023-02-22T00:19:30.924Z,98952.60
2023-02-22T00:21:58.959Z,98949.60
2023-02-22T00:24:26.596Z,98948.00
2023-02-22T00:26:55.862Z,98954.40
2023-02-22T00:29:24.978Z,98957.20
2023-02-22T00:31:52.755Z,98959.40
2023-02-22T00:34:20.463Z,98959.00
2023-02-22T00:36:49.740Z,98954.60
2023-02-22T00:39:18.173Z,98964.00
2023-02-22T00:41:46.207Z,98958.80
2023-02-22T00:44:14.703Z,98964.80
2023-02-22T00:46:42.409Z,98967.00
2023-02-22T00:49:10.248Z,98966.20
2023-02-22T00:51:37.958Z,98966.00
2023-02-22T00:54:05.720Z,98967.00
2023-02-22T00:56:34.827Z,98967.60
2023-02-22T00:59:03.564Z,98970.20
2023-02-22T01:01:32.321Z,98970.60
2023-02-22T01:04:00.035Z,98969.20
2023-02-22T01:06:29.325Z,98969.80
2023-02-22T01:08:57.030Z,98972.40
2023-02-22T01:11:24.672Z,98967.60
2023-02-22T01:13:54.225Z,98969.60
2023-02-22T01:16:22.566Z,98966.00
2023-02-22T01:18:50.251Z,98965.60
2023-02-22T01:21:19.133Z,98968.40
2023-02-22T01:23:47.554Z,98972.20
2023-02-22T01:26:15.307Z,98969.60
2023-02-22T01:28:43.278Z,98972.80
2023-02-22T01:31:12.660Z,98975.00
2023-02-22T01:33:41.462Z,98975.40
2023-02-22T01:36:11.457Z,98975.40
2023-02-22T01:38:39.703Z,98974.80
2023-02-22T01:41:07.902Z,98974.80
2023-02-22T01:43:35.551Z,98974.00
2023-02-22T01:46:08.428Z,98972.60
2023-02-22T01:48:47.209Z,98971.20
2023-02-22T01:51:24.224Z,98965.60
2023-02-22T01:54:08.429Z,98963.40
2023-02-22T01:56:46.111Z,98967.20
2023-02-22T01:59:14.950Z,98963.80
2023-02-22T02:01:44.674Z,98966.00
2023-02-22T02:04:20.626Z,98968.40
2023-02-22T02:06:48.706Z,98973.00
2023-02-22T02:09:36.732Z,98971.80
2023-02-22T02:12:06.492Z,98973.20
2023-02-22T02:14:34.208Z,98970.00
2023-02-22T02:17:02.260Z,98972.00
2023-02-22T02:19:51.644Z,98971.20
2023-02-22T02:22:47.259Z,98971.00
2023-02-22T02:25:49.266Z,98976.60
2023-02-22T02:28:44.666Z,98979.20
2023-02-22T02:32:03.456Z,98972.80
2023-02-22T02:35:45.326Z,98970.00
2023-02-22T02:38:34.305Z,98973.40
2023-02-22T02:41:18.725Z,98976.40
2023-02-22T02:44:14.447Z,98975.60
2023-02-22T02:47:08.315Z,98972.80
2023-02-22T02:49:49.996Z,98972.20
2023-02-22T02:52:22.329Z,98974.80
2023-02-22T02:54:52.255Z,98962.20
2023-02-22T02:57:19.896Z,98972.60
2023-02-22T02:59:47.616Z,98963.80
2023-02-22T03:02:42.930Z,98962.00
2023-02-22T03:06:04.873Z,98970.40
2023-02-22T03:08:54.281Z,98972.60
2023-02-22T03:11:29.373Z,98974.80
2023-02-22T03:14:21.745Z,98976.80
2023-02-22T03:17:00.765Z,98980.80
2023-02-22T03:19:38.294Z,98983.00
2023-02-22T03:22:23.816Z,98976.40
2023-02-22T03:24:59.994Z,98975.00
2023-02-22T03:28:02.932Z,98984.20
2023-02-22T03:30:49.258Z,98983.60
2023-02-22T03:33:33.876Z,98981.40
2023-02-22T03:36:24.973Z,98982.00
2023-02-22T03:38:55.698Z,98982.00
2023-02-22T03:41:26.932Z,98985.60
2023-02-22T03:44:10.457Z,98983.80
2023-02-22T03:46:44.222Z,98991.00
2023-02-22T03:49:31.648Z,98986.20
2023-02-22T03:51:59.847Z,98990.20
2023-02-22T03:54:28.789Z,98992.40
2023-02-22T03:57:13.995Z,98989.80
2023-02-22T03:59:42.280Z,98991.40
2023-02-22T04:02:10.147Z,98991.80
2023-02-22T04:04:38.475Z,98991.20
2023-02-22T04:07:06.263Z,98989.80
2023-02-22T04:09:33.886Z,98997.00
2023-02-22T04:12:01.670Z,98996.80
2023-02-22T04:14:29.705Z,98996.60
2023-02-22T04:16:57.626Z,98992.00
2023-02-22T04:19:25.996Z,98990.80
2023-02-22T04:21:53.690Z,98989.20
2023-02-22T04:24:21.421Z,98993.60
2023-02-22T04:26:50.047Z,98989.00
2023-02-22T04:29:17.898Z,98987.80
2023-02-22T04:31:45.708Z,98986.80
2023-02-22T04:34:13.793Z,98991.60
2023-02-22T04:36:44.625Z,98984.40
2023-02-22T04:39:12.537Z,98982.00
2023-02-22T04:41:40.321Z,98985.60
2023-02-22T04:44:08.219Z,98987.80
2023-02-22T04:46:35.967Z,98988.40
2023-02-22T04:49:04.144Z,98991.20
2023-02-22T04:51:32.075Z,98989.40
2023-02-22T04:53:59.830Z,98984.20
2023-02-22T04:56:27.577Z,98984.20
2023-02-22T04:58:55.366Z,98982.20
2023-02-22T05:01:23.538Z,98988.80
2023-02-22T05:03:51.437Z,98986.60
2023-02-22T05:06:19.053Z,98985.00
2023-02-22T05:08:46.684Z,98982.60
2023-02-22T05:11:14.985Z,98985.40
2023-02-22T05:13:43.787Z,98986.20
2023-02-22T05:16:11.818Z,98988.20
2023-02-22T05:18:39.489Z,98986.20
2023-02-22T05:21:07.616Z,98987.20
2023-02-22T05:23:35.275Z,98987.20
2023-02-22T05:26:03.256Z,98990.20
2023-02-22T05:28:32.299Z,98998.20
2023-02-22T05:31:00.013Z,98997.20
2023-02-22T05:33:27.705Z,99002.40
2023-02-22T05:35:56.201Z,99000.20
2023-02-22T05:38:24.030Z,99007.80
2023-02-22T05:40:51.956Z,99006.80
2023-02-22T05:43:19.609Z,99007.60
2023-02-22T05:45:47.253Z,99008.40
2023-02-22T05:48:14.911Z,99014.60
2023-02-22T05:50:43.904Z,99017.60
2023-02-22T05:53:11.590Z,99014.80
2023-02-22T05:55:40.346Z,99010.40
2023-02-22T05:58:08.058Z,99015.00
2023-02-22T06:00:36.236Z,99020.00
2023-02-22T06:03:08.522Z,99023.20
2023-02-22T06:05:37.797Z,99023.40
2023-02-22T06:08:07.268Z,99023.20
2023-02-22T06:10:35.315Z,99029.20
2023-02-22T06:13:05.148Z,99030.00
2023-02-22T06:15:32.886Z,99035.60
2023-02-22T06:18:01.731Z,99036.40
2023-02-22T06:20:30.920Z,99033.80
2023-02-22T06:22:59.277Z,99035.60
2023-02-22T06:25:33.888Z,99041.00
2023-02-22T06:28:02.291Z,99046.40
2023-02-22T06:30:31.389Z,99049.40
2023-02-22T06:32:59.136Z,99049.60
2023-02-22T06:35:26.967Z,99057.20
2023-02-22T06:37:54.682Z,99052.60
2023-02-22T06:40:22.516Z,99056.80
2023-02-22T06:42:50.211Z,99058.00
2023-02-22T06:45:18.475Z,99063.20
2023-02-22T06:47:46.783Z,99060.40
2023-02-22T06:50:26.248Z,99065.20
2023-02-22T06:52:53.991Z,99062.40
2023-02-22T06:55:26.995Z,99065.00
2023-02-22T06:57:54.658Z,99072.00
2023-02-22T07:00:25.502Z,99065.20
2023-02-22T07:02:54.544Z,99076.20
2023-02-22T07:05:24.514Z,99077.40
2023-02-22T07:07:56.411Z,99084.00
2023-02-22T07:10:30.913Z,99083.80
2023-02-22T07:12:58.995Z,99088.80
2023-02-22T07:15:29.901Z,99090.00
2023-02-22T07:17:57.984Z,99093.20
2023-02-22T07:20:29.131Z,99094.40
2023-02-22T07:22:56.931Z,99093.60
2023-02-22T07:25:25.786Z,99089.20
2023-02-22T07:27:53.885Z,99086.00
2023-02-22T07:30:32.386Z,99089.20
2023-02-22T07:33:03.973Z,99083.40
2023-02-22T07:35:38.800Z,99085.60
2023-02-22T07:38:09.163Z,99082.20
2023-02-22T07:40:38.889Z,99080.80
2023-02-22T07:43:18.630Z,99083.20
2023-02-22T07:45:49.298Z,99083.80
2023-02-22T07:48:20.399Z,99085.20
2023-02-22T07:50:48.628Z,99081.00
2023-02-22T07:53:23.998Z,99078.20
2023-02-22T07:55:52.205Z,99075.80
2023-02-22T07:58:27.873Z,99080.80
2023-02-22T08:00:56.153Z,99077.00
2023-02-22T08:03:26.407Z,99078.20
2023-02-22T08:05:59.196Z,99083.80
2023-02-22T08:08:27.017Z,99082.20
2023-02-22T08:10:55.391Z,99085.40
2023-02-22T08:13:23.791Z,99085.00
2023-02-22T08:15:53.980Z,99088.60
2023-02-22T08:18:24.401Z,99086.60
2023-02-22T08:20:54.113Z,99088.40
2023-02-22T08:23:25.850Z,99086.80
2023-02-22T08:25:54.872Z,99089.00
2023-02-22T08:28:25.037Z,99088.80
2023-02-22T08:30:54.164Z,99089.40
2023-02-22T08:33:22.329Z,99091.80
2023-02-22T08:35:51.971Z,99089.20
2023-02-22T08:38:30.475Z,99097.00
2023-02-22T08:40:58.547Z,99090.20
2023-02-22T08:43:26.511Z,99095.00
2023-02-22T08:45:57.277Z,99093.00
2023-02-22T08:48:25.876Z,99094.40
2023-02-22T08:50:53.765Z,99093.80
2023-02-22T08:53:21.459Z,99094.40
2023-02-22T08:55:49.839Z,99093.20
2023-02-22T08:58:17.641Z,99095.00
2023-02-22T09:00:46.109Z,99095.20
2023-02-22T09:03:15.276Z,99092.80
2023-02-22T09:05:44.040Z,99098.60
2023-02-22T09:08:12.297Z,99088.20
2023-02-22T09:10:41.451Z,99094.80
2023-02-22T09:13:09.251Z,99089.40
2023-02-22T09:15:37.838Z,99090.40
2023-02-22T09:18:09.116Z,99089.80
2023-02-22T09:20:37.628Z,99091.20
2023-02-22T09:23:07.105Z,99090.80
2023-02-22T09:25:35.782Z,99092.00
2023-02-22T09:28:03.603Z,99097.20
2023-02-22T09:30:35.497Z,99098.40
2023-02-22T09:33:12.471Z,99096.40
2023-02-22T09:35:45.579Z,99102.40
2023-02-22T09:38:17.346Z,99090.80
2023-02-22T09:40:54.289Z,99096.60
2023-02-22T09:43:33.805Z,99092.60
2023-02-22T09:46:22.784Z,99090.40
2023-02-22T09:49:07.135Z,99090.60
2023-02-22T09:51:43.575Z,99091.00
2023-02-22T09:54:37.373Z,99095.60
2023-02-22T09:57:11.739Z,99092.00
2023-02-22T09:59:51.774Z,99095.60
2023-02-22T10:02:31.481Z,99097.80
2023-02-22T10:05:17.773Z,99093.80
2023-02-22T10:07:58.225Z,99094.40
2023-02-22T10:10:33.817Z,99090.40
2023-02-22T10:13:26.036Z,99083.60
2023-02-22T10:16:34.446Z,99085.00
2023-02-22T10:19:43.678Z,99080.00
2023-02-22T10:22:43.391Z,99080.20
2023-02-22T10:25:23.536Z,99075.00
2023-02-22T10:28:17.154Z,99075.60
2023-02-22T10:31:09.227Z,99078.40
2023-02-22T10:33:46.302Z,99079.20
2023-02-22T10:36:24.715Z,99081.80
2023-02-22T10:39:02.542Z,99079.00
2023-02-22T10:41:34.625Z,99075.00
2023-02-22T10:44:03.082Z,99077.00
2023-02-22T10:46:33.999Z,99073.80
2023-02-22T10:49:09.423Z,99080.20
2023-02-22T10:51:37.142Z,99076.80
2023-02-22T10:54:31.640Z,99075.60
2023-02-22T10:57:00.968Z,99075.40
2023-02-22T10:59:37.515Z,99077.60
2023-02-22T11:02:31.548Z,99072.20
2023-02-22T11:05:04.215Z,99069.00
2023-02-22T11:07:35.924Z,99071.00
2023-02-22T11:10:09.496Z,99072.40
2023-02-22T11:12:41.313Z,99070.40
2023-02-22T11:15:24.115Z,99068.40
2023-02-22T11:17:57.393Z,99065.60
2023-02-22T11:20:34.831Z,99063.60
2023-02-22T11:23:05.844Z,99057.40
2023-02-22T11:25:42.547Z,99057.00
2023-02-22T11:28:32.783Z,99055.80
2023-02-22T11:31:30.151Z,99056.00
2023-02-22T11:34:02.116Z,99052.80
2023-02-22T11:36:40.454Z,99050.60
2023-02-22T11:39:24.556Z,99053.20
2023-02-22T11:41:55.881Z,99050.60
2023-02-22T11:44:29.427Z,99047.00
2023-02-22T11:47:07.156Z,99050.00
2023-02-22T11:49:39.558Z,99050.00
2023-02-22T11:52:38.822Z,99047.60
2023-02-22T11:55:41.852Z,99054.00
2023-02-22T11:59:08.153Z,99048.80
2023-02-22T12:02:15.162Z,99045.40
2023-02-22T12:05:11.860Z,99046.80
2023-02-22T12:07:56.532Z,99045.20
2023-02-22T12:10:47.109Z,99045.80
2023-02-22T12:13:21.213Z,99036.20
2023-02-22T12:16:09.222Z,99038.40
2023-02-22T12:19:15.114Z,99034.80
2023-02-22T12:21:52.787Z,99038.80
2023-02-22T12:24:34.448Z,99042.20
2023-02-22T12:27:19.977Z,99034.40
2023-02-22T12:30:05.861Z,99040.20
2023-02-22T12:32:50.675Z,99034.00
2023-02-22T12:35:27.652Z,99043.40
2023-02-22T12:38:09.047Z,99041.60
2023-02-22T12:41:14.116Z,99043.40
2023-02-22T12:43:55.054Z,99038.20
2023-02-22T12:46:41.479Z,99040.60
2023-02-22T12:49:40.083Z,99038.60
2023-02-22T12:52:22.119Z,99039.20
2023-02-22T12:55:10.994Z,99037.20
2023-02-22T12:58:09.508Z,99038.80
2023-02-22T13:00:54.993Z,99034.60
2023-02-22T13:03:44.413Z,99044.00
2023-02-22T13:06:59.546Z,99041.40
2023-02-22T13:09:39.822Z,99033.40
2023-02-22T13:12:29.706Z,99035.40
2023-02-22T13:15:28.346Z,99031.20
2023-02-22T13:18:19.344Z,99030.40
2023-02-22T13:21:25.897Z,99029.40
2023-02-22T13:24:17.011Z,99030.40
2023-02-22T13:26:53.574Z,99029.80
2023-02-22T13:29:36.828Z,99024.80
2023-02-22T13:32:39.366Z,99028.40
2023-02-22T13:35:28.968Z,99026.40
2023-02-22T13:38:30.635Z,99026.00
2023-02-22T13:41:14.935Z,99025.60
2023-02-22T13:44:33.138Z,99023.60
2023-02-22T13:47:42.613Z,99025.60
2023-02-22T13:50:54.768Z,99024.40
2023-02-22T13:53:29.581Z,99025.40
2023-02-22T13:56:00.842Z,99023.80
2023-02-22T13:58:28.811Z,99028.20
2023-02-22T14:01:00.225Z,99024.60
2023-02-22T14:03:40.675Z,99024.40
2023-02-22T14:06:41.593Z,99021.40
2023-02-22T14:09:19.160Z,99019.80
2023-02-22T14:11:48.645Z,99019.80
2023-02-22T14:14:18.334Z,99025.20
2023-02-22T14:17:25.437Z,99020.60
2023-02-22T14:20:21.268Z,99023.80
2023-02-22T14:22:53.146Z,99027.60
2023-02-22T14:25:43.388Z,99023.20
2023-02-22T14:28:50.151Z,99024.00
2023-02-22T14:31:34.812Z,99024.60
2023-02-22T14:34:08.311Z,99020.80
2023-02-22T14:37:01.079Z,99021.20
2023-02-22T14:39:57.411Z,99022.80
2023-02-22T14:42:28.210Z,99025.80
2023-02-22T14:45:12.225Z,99029.80
2023-02-22T14:47:49.595Z,99030.00
2023-02-22T14:50:27.981Z,99032.20
2023-02-22T14:53:32.822Z,99027.80
2023-02-22T14:56:07.047Z,99035.20
2023-02-22T14:58:45.331Z,99031.80
2023-02-22T15:01:20.215Z,99030.40
2023-02-22T15:03:56.011Z,99026.60
2023-02-22T15:06:31.429Z,99031.40
2023-02-22T15:09:16.222Z,99031.00
2023-02-22T15:11:46.184Z,99034.40
2023-02-22T15:14:26.322Z,99034.20
2023-02-22T15:17:02.489Z,99026.80
2023-02-22T15:19:39.686Z,99023.80
2023-02-22T15:22:21.131Z,99026.40
2023-02-22T15:25:06.156Z,99031.80
2023-02-22T15:27:37.328Z,99027.00
2023-02-22T15:30:18.683Z,99031.00
2023-02-22T15:33:02.534Z,99027.60
2023-02-22T15:35:33.560Z,99032.20
2023-02-22T15:38:10.739Z,99028.40
2023-02-22T15:40:43.327Z,99023.60
2023-02-22T15:43:25.040Z,99026.20
2023-02-22T15:45:53.008Z,99027.20
2023-02-22T15:48:21.884Z,99026.80
2023-02-22T15:51:11.368Z,99020.60
2023-02-22T15:53:46.989Z,99020.20
2023-02-22T15:56:23.861Z,99024.00
2023-02-22T15:58:59.954Z,99027.00
2023-02-22T16:01:27.813Z,99029.80
2023-02-22T16:03:59.869Z,99030.60
2023-02-22T16:06:41.554Z,99031.60
2023-02-22T16:09:25.875Z,99028.60
2023-02-22T16:12:22.142Z,99035.20
2023-02-22T16:14:52.357Z,99036.60
2023-02-22T16:17:31.184Z,99038.40
2023-02-22T16:20:02.165Z,99040.80
2023-02-22T16:22:36.148Z,99039.40
2023-02-22T16:25:18.969Z,99039.20
2023-02-22T16:27:58.030Z,99041.80
2023-02-22T16:30:32.421Z,99045.00
2023-02-22T16:33:06.409Z,99048.80
2023-02-22T16:35:35.633Z,99060.60
2023-02-22T16:38:07.648Z,99060.40
2023-02-22T16:40:44.533Z,99056.40
2023-02-22T16:43:18.732Z,99061.80
2023-02-22T16:45:47.536Z,99059.60
2023-02-22T16:48:27.098Z,99059.60
2023-02-22T16:50:59.590Z,99064.80
2023-02-22T16:53:32.688Z,99059.00
2023-02-22T16:56:05.874Z,99062.80
2023-02-22T16:58:38.279Z,99064.00
2023-02-22T17:01:06.924Z,99066.00
2023-02-22T17:03:34.690Z,99065.60
2023-02-22T17:06:02.326Z,99067.20
2023-02-22T17:08:31.096Z,99067.60
2023-02-22T17:11:00.638Z,99071.80
2023-02-22T17:13:29.342Z,99066.60
2023-02-22T17:15:57.778Z,99074.80
2023-02-22T17:18:28.817Z,99078.80
2023-02-22T17:20:56.918Z,99074.60
2023-02-22T17:23:24.791Z,99081.00
2023-02-22T17:25:59.330Z,99076.00
2023-02-22T17:28:27.114Z,99081.40
2023-02-22T17:31:01.487Z,99078.20
2023-02-22T17:33:36.711Z,99084.00
2023-02-22T17:36:05.458Z,99079.00
2023-02-22T17:38:34.832Z,99078.80
2023-02-22T17:41:03.212Z,99068.80
2023-02-22T17:43:30.866Z,99075.20
2023-02-22T17:45:58.687Z,99074.20
2023-02-22T17:48:26.752Z,99077.20
2023-02-22T17:50:54.541Z,99078.20
2023-02-22T17:53:24.797Z,99079.00
2023-02-22T17:55:53.045Z,99080.00
2023-02-22T17:58:22.697Z,99079.40
2023-02-22T18:00:51.106Z,99080.20
2023-02-22T18:03:25.839Z,99078.60
2023-02-22T18:05:58.036Z,99078.00
2023-02-22T18:08:28.971Z,99076.20
2023-02-22T18:10:57.038Z,99080.40
2023-02-22T18:13:27.363Z,99080.60
2023-02-22T18:16:00.240Z,99080.80
2023-02-22T18:18:28.777Z,99079.40
2023-02-22T18:20:59.783Z,99084.40
2023-02-22T18:23:31.929Z,99086.20
2023-02-22T18:26:11.779Z,99084.80
2023-02-22T18:28:40.330Z,99086.20
2023-02-22T18:31:15.111Z,99085.20
2023-02-22T18:33:47.669Z,99093.80
2023-02-22T18:36:17.605Z,99091.60
2023-02-22T18:38:45.732Z,99092.00
2023-02-22T18:41:16.748Z,99097.80
2023-02-22T18:43:46.606Z,99099.20
2023-02-22T18:46:21.355Z,99095.40
2023-02-22T18:48:54.730Z,99093.00
2023-02-22T18:51:24.515Z,99096.80
2023-02-22T18:53:57.108Z,99090.40
2023-02-22T18:56:29.799Z,99093.40
2023-02-22T18:59:01.616Z,99098.40
2023-02-22T19:01:31.423Z,99098.60
2023-02-22T19:04:00.415Z,99099.60
2023-02-22T19:06:28.192Z,99101.80
2023-02-22T19:08:56.131Z,99101.20
2023-02-22T19:11:24.955Z,99097.60
2023-02-22T19:13:57.242Z,99101.80
2023-02-22T19:16:27.387Z,99095.00
2023-02-22T19:18:57.888Z,99100.60
2023-02-22T19:21:28.839Z,99106.20
2023-02-22T19:23:56.897Z,99091.40
2023-02-22T19:26:27.380Z,99091.00
2023-02-22T19:28:57.486Z,99095.00
2023-02-22T19:31:33.487Z,99096.60
2023-02-22T19:34:09.108Z,99094.00
2023-02-22T19:36:46.915Z,99093.20
2023-02-22T19:39:18.113Z,99096.00
2023-02-22T19:41:47.293Z,99093.40
2023-02-22T19:44:15.116Z,99089.20
2023-02-22T19:46:42.831Z,99095.60
2023-02-22T19:49:10.649Z,99098.40
2023-02-22T19:51:38.472Z,99099.20
2023-02-22T19:54:10.893Z,99099.60
2023-02-22T19:56:38.628Z,99101.60
2023-02-22T19:59:13.386Z,99102.40
2023-02-22T20:01:44.401Z,99103.20
2023-02-22T20:04:21.525Z,99106.00
2023-02-22T20:06:57.451Z,99107.20
2023-02-22T20:09:37.353Z,99106.20
2023-02-22T20:12:06.891Z,99114.00
2023-02-22T20:14:35.542Z,99114.20
2023-02-22T20:17:04.900Z,99113.00
2023-02-22T20:19:32.613Z,99113.00
2023-02-22T20:22:00.425Z,99113.00
2023-02-22T20:24:28.192Z,99111.80
2023-02-22T20:26:58.272Z,99107.00
2023-02-22T20:29:29.797Z,99109.20
2023-02-22T20:32:00.611Z,99106.60
2023-02-22T20:34:33.628Z,99110.80
2023-02-22T20:37:03.271Z,99104.00
2023-02-22T20:39:31.628Z,99105.00
2023-02-22T20:42:00.585Z,99105.60
2023-02-22T20:44:28.486Z,99101.20
2023-02-22T20:46:56.411Z,99099.00
2023-02-22T20:49:25.776Z,99104.40
2023-02-22T20:51:53.472Z,99103.20
2023-02-22T20:54:21.188Z,99107.00
2023-02-22T20:56:49.542Z,99103.80
2023-02-22T20:59:19.746Z,99108.00
2023-02-22T21:01:50.231Z,99106.00
2023-02-22T21:04:18.191Z,99105.00
2023-02-22T21:06:46.786Z,99103.20
2023-02-22T21:09:19.136Z,99102.80
2023-02-22T21:11:47.432Z,99099.20
2023-02-22T21:14:19.626Z,99102.20
2023-02-22T21:16:50.906Z,99101.60
2023-02-22T21:19:25.744Z,99100.40
2023-02-22T21:21:57.968Z,99104.00
2023-02-22T21:24:29.062Z,99106.40
2023-02-22T21:26:59.093Z,99109.20
2023-02-22T21:29:28.923Z,99104.40
2023-02-22T21:31:57.391Z,99105.80
2023-02-22T21:34:25.800Z,99099.80
2023-02-22T21:36:53.568Z,99093.60
2023-02-22T21:39:22.767Z,99092.80
2023-02-22T21:41:52.368Z,99094.00
2023-02-22T21:44:21.488Z,99099.20
2023-02-22T21:46:49.931Z,99091.00
2023-02-22T21:49:22.739Z,99093.20
2023-02-22T21:51:51.896Z,99094.20
2023-02-22T21:54:20.044Z,99088.40
2023-02-22T21:56:48.016Z,99088.00
2023-02-22T21:59:20.216Z,99087.40
2023-02-22T22:01:55.984Z,99089.80
2023-02-22T22:04:34.940Z,99086.40
2023-02-22T22:07:04.490Z,99086.20
2023-02-22T22:09:38.040Z,99086.40
2023-02-22T22:12:06.508Z,99084.40
2023-02-22T22:14:35.849Z,99082.80
2023-02-22T22:17:07.888Z,99086.80
2023-02-22T22:19:39.375Z,99076.00
2023-02-22T22:22:08.132Z,99079.40
2023-02-22T22:24:36.843Z,99075.40
2023-02-22T22:27:06.509Z,99076.60
2023-02-22T22:29:34.576Z,99077.00
2023-02-22T22:32:03.261Z,99071.80
2023-02-22T22:34:34.318Z,99065.40
2023-02-22T22:37:02.952Z,99068.00
2023-02-22T22:39:30.884Z,99068.00
2023-02-22T22:41:58.630Z,99063.20
2023-02-22T22:44:32.646Z,99066.00
2023-02-22T22:47:01.198Z,99061.20
2023-02-22T22:49:31.341Z,99060.20
2023-02-22T22:51:59.248Z,99065.60
2023-02-22T22:54:27.014Z,99064.60
2023-02-22T22:56:54.826Z,99070.40
2023-02-22T22:59:22.543Z,99063.20
2023-02-22T23:01:52.183Z,99063.20
2023-02-22T23:04:21.509Z,99072.40
2023-02-22T23:06:52.869Z,99067.20
2023-02-22T23:09:29.646Z,99069.20
2023-02-22T23:12:09.901Z,99071.60
2023-02-22T23:14:44.067Z,99071.40
2023-02-22T23:17:16.165Z,99076.80
2023-02-22T23:19:45.263Z,99079.60
2023-02-22T23:22:16.298Z,99082.20
2023-02-22T23:24:45.325Z,99077.60
2023-02-22T23:27:13.332Z,99083.20
2023-02-22T23:29:46.493Z,99078.80
2023-02-22T23:32:14.606Z,99083.00
2023-02-22T23:34:42.404Z,99088.60
2023-02-22T23:37:10.742Z,99085.80
2023-02-22T23:39:38.808Z,99075.40
2023-02-22T23:42:08.942Z,99077.60
2023-02-22T23:44:36.818Z,99077.00
2023-02-22T23:47:04.657Z,99083.80
2023-02-22T23:49:38.870Z,99083.80
2023-02-22T23:52:08.968Z,99074.80
2023-02-22T23:54:40.464Z,99079.20
2023-02-22T23:57:09.038Z,99075.80
2023-02-22T23:59:40.373Z,99077.20
